Time;durP1;ratioP1;P1;durP2;ratioP2;P2;SDS_P1;SDS_P2;PMS_P1;PMS_P2;Temp;Humidity;BMP_temperature;BMP_pressure;BME280_temperature;BME280_humidity;BME280_pressure;Samples;Min_cycle;Max_cycle;Signal;HPM_P1;HPM_P2
2021/06/23 00:00:28;;;;;;;3.45;3.25;;;20.90;56.80;;;;;;5053439;28;20175;-63
2021/06/23 00:02:54;;;;;;;5.68;3.45;;;20.90;56.80;;;;;;5052226;28;20179;-63
2021/06/23 00:05:19;;;;;;;4.43;3.30;;;20.90;56.80;;;;;;5053119;28;20716;-63
2021/06/23 00:07:45;;;;;;;3.90;3.17;;;20.90;56.90;;;;;;5052828;28;20171;-63
2021/06/23 00:10:12;;;;;;;4.68;3.40;;;20.90;57.00;;;;;;5051109;28;20171;-63
2021/06/23 00:12:38;;;;;;;3.75;3.45;;;20.90;57.00;;;;;;5052312;28;20571;-63
2021/06/23 00:15:03;;;;;;;5.00;3.67;;;20.90;57.10;;;;;;5052990;28;20246;-63
2021/06/23 00:17:29;;;;;;;4.97;3.42;;;20.90;57.10;;;;;;5051856;28;20187;-63
2021/06/23 00:19:55;;;;;;;4.47;3.40;;;20.90;57.10;;;;;;5052742;28;20175;-62
2021/06/23 00:22:20;;;;;;;3.83;3.53;;;20.90;57.10;;;;;;5052611;28;20175;-62
2021/06/23 00:24:46;;;;;;;3.85;3.47;;;20.80;57.10;;;;;;5051534;28;20254;-62
2021/06/23 00:27:11;;;;;;;3.75;3.45;;;20.90;57.20;;;;;;5052559;28;20271;-62
2021/06/23 00:29:37;;;;;;;4.28;3.75;;;20.80;57.30;;;;;;5051781;28;20312;-63
2021/06/23 00:32:03;;;;;;;3.65;3.35;;;20.80;57.20;;;;;;5052377;28;20568;-63
2021/06/23 00:34:28;;;;;;;4.20;3.65;;;20.80;57.30;;;;;;5034581;28;20270;-63
2021/06/23 00:36:54;;;;;;;4.18;3.40;;;20.80;57.30;;;;;;5017086;28;20262;-64
2021/06/23 00:39:19;;;;;;;4.47;3.90;;;20.80;57.30;;;;;;5052127;28;20171;-63
2021/06/23 00:41:45;;;;;;;5.32;3.72;;;20.80;57.40;;;;;;5051949;28;20601;-64
2021/06/23 00:44:12;;;;;;;3.35;3.15;;;20.80;57.40;;;;;;5051820;28;20175;-63
2021/06/23 00:46:38;;;;;;;4.07;3.28;;;20.80;57.50;;;;;;5017950;28;20175;-63
2021/06/23 00:49:03;;;;;;;4.03;3.45;;;20.80;57.40;;;;;;5017983;28;20577;-63
2021/06/23 00:51:29;;;;;;;3.50;3.20;;;20.80;57.40;;;;;;5033632;28;20217;-63
2021/06/23 00:53:54;;;;;;;4.53;3.70;;;20.80;57.40;;;;;;5034322;28;20198;-62
2021/06/23 00:56:23;;;;;;;3.38;3.08;;;20.80;57.40;;;;;;5034204;28;20177;-62
2021/06/23 00:58:48;;;;;;;3.60;3.30;;;20.80;57.50;;;;;;5033298;28;20546;-63
2021/06/23 01:01:14;;;;;;;3.92;3.45;;;20.80;57.50;;;;;;5034248;28;20163;-63
2021/06/23 01:03:39;;;;;;;3.28;2.95;;;20.70;57.50;;;;;;5033782;28;20183;-63
2021/06/23 01:06:05;;;;;;;3.95;3.40;;;20.70;57.50;;;;;;5017029;28;20167;-63
2021/06/23 01:08:30;;;;;;;3.30;3.10;;;20.70;57.50;;;;;;5033781;28;20175;-63
2021/06/23 01:10:56;;;;;;;6.30;3.30;;;20.80;57.60;;;;;;5052057;28;20250;-63
2021/06/23 01:13:34;;;;;;;3.63;3.33;;;20.70;57.60;;;;;;5033356;28;20525;-63
2021/06/23 01:16:02;;;;;;;3.53;3.22;;;20.70;57.60;;;;;;5051663;28;20220;-62
2021/06/23 01:18:27;;;;;;;3.70;3.28;;;20.70;57.60;;;;;;5051768;28;20186;-63
2021/06/23 01:20:53;;;;;;;3.50;3.20;;;20.70;57.60;;;;;;5016332;28;20175;-62
2021/06/23 01:23:18;;;;;;;3.88;3.05;;;20.70;57.60;;;;;;5051834;28;20281;-62
2021/06/23 01:25:47;;;;;;;3.45;3.15;;;20.70;57.70;;;;;;5051627;28;20554;-62
2021/06/23 01:28:13;;;;;;;3.45;3.22;;;20.70;57.70;;;;;;5050860;28;20230;-62
2021/06/23 01:30:38;;;;;;;3.72;3.42;;;20.70;57.80;;;;;;5051442;28;20190;-62
2021/06/23 01:33:05;;;;;;;3.42;3.20;;;20.70;57.70;;;;;;5050928;28;20592;-62
2021/06/23 01:35:31;;;;;;;3.45;3.15;;;20.70;57.80;;;;;;5033744;28;20273;-63
2021/06/23 01:37:59;;;;;;;3.38;3.17;;;20.70;57.80;;;;;;5051789;28;20271;-64
2021/06/23 01:40:24;;;;;;;4.22;3.58;;;20.70;57.80;;;;;;5033240;28;20175;-64
2021/06/23 01:42:50;;;;;;;3.47;3.22;;;20.70;57.80;;;;;;5051211;28;20305;-63
2021/06/23 01:45:16;;;;;;;3.75;3.45;;;20.60;57.80;;;;;;5051770;28;20228;-63
2021/06/23 01:47:41;;;;;;;3.70;3.22;;;20.60;57.90;;;;;;5050394;28;20228;-63
2021/06/23 01:50:09;;;;;;;4.45;3.58;;;20.60;57.80;;;;;;5051431;28;20173;-62
2021/06/23 01:52:37;;;;;;;3.85;3.55;;;20.60;57.80;;;;;;5051295;28;20222;-62
2021/06/23 01:55:02;;;;;;;3.63;3.22;;;20.60;57.90;;;;;;5050737;28;20176;-62
2021/06/23 01:57:28;;;;;;;3.83;3.20;;;20.60;57.90;;;;;;5051315;28;20236;-62
2021/06/23 01:59:53;;;;;;;3.75;3.50;;;20.60;57.90;;;;;;5016936;28;20182;-63
2021/06/23 02:02:29;;;;;;;3.83;3.45;;;20.70;58.00;;;;;;5050714;28;20225;-63
2021/06/23 02:05:03;;;;;;;3.08;2.88;;;20.60;57.90;;;;;;5051122;28;20171;-63
2021/06/23 02:07:29;;;;;;;3.67;3.38;;;20.60;58.00;;;;;;5051502;28;20182;-63
2021/06/23 02:10:12;;;;;;;3.78;3.45;;;20.60;58.00;;;;;;5050391;28;20190;-62
2021/06/23 02:13:03;;;;;;;3.50;3.20;;;20.60;58.00;;;;;;5033016;28;20700;-62
2021/06/23 02:15:28;;;;;;;3.63;3.33;;;20.60;58.00;;;;;;5035681;28;20360;-62
2021/06/23 02:17:54;;;;;;;3.45;3.17;;;20.60;58.10;;;;;;5051030;28;20194;-62
2021/06/23 02:20:19;;;;;;;3.80;3.30;;;20.60;58.00;;;;;;5017237;28;20261;-62
2021/06/23 02:22:45;;;;;;;3.70;3.40;;;20.60;58.00;;;;;;5032325;28;20172;-62
2021/06/23 02:25:11;;;;;;;3.63;3.33;;;20.60;58.00;;;;;;5033428;28;20541;-62
2021/06/23 02:27:40;;;;;;;3.28;2.97;;;20.60;58.10;;;;;;5050739;28;20235;-62
2021/06/23 02:30:07;;;;;;;3.25;3.00;;;20.50;58.00;;;;;;5050624;28;20205;-62
2021/06/23 02:32:33;;;;;;;3.10;2.90;;;20.60;58.10;;;;;;5032684;28;20302;-63
2021/06/23 02:34:58;;;;;;;3.25;2.95;;;20.60;58.10;;;;;;5035976;28;20599;-63
2021/06/23 02:37:24;;;;;;;3.55;3.25;;;20.60;58.20;;;;;;5053792;28;20189;-63
2021/06/23 02:39:50;;;;;;;3.58;3.28;;;20.60;58.10;;;;;;5036438;28;20305;-64
2021/06/23 02:42:15;;;;;;;3.40;3.13;;;20.60;58.20;;;;;;5054448;28;20195;-64
2021/06/23 02:44:41;;;;;;;3.17;2.97;;;20.60;58.20;;;;;;5053567;28;20248;-63
2021/06/23 02:47:06;;;;;;;3.60;3.30;;;20.50;58.20;;;;;;5036730;28;20172;-63
2021/06/23 02:49:33;;;;;;;3.03;2.72;;;20.50;58.20;;;;;;5036340;28;20178;-63
2021/06/23 02:51:58;;;;;;;3.63;3.15;;;20.60;58.30;;;;;;5053498;28;20207;-62
2021/06/23 02:54:24;;;;;;;3.65;3.35;;;20.50;58.20;;;;;;5036682;28;20488;-62
2021/06/23 02:56:50;;;;;;;3.35;3.10;;;20.50;58.20;;;;;;5036247;28;20217;-62
2021/06/23 02:59:16;;;;;;;3.33;3.05;;;20.50;58.20;;;;;;5053356;28;20213;-63
2021/06/23 03:01:41;;;;;;;3.83;3.53;;;20.50;58.20;;;;;;5019843;28;20171;-63
2021/06/23 03:04:07;;;;;;;3.22;3.03;;;20.50;58.20;;;;;;5054328;28;20171;-63
2021/06/23 03:06:32;;;;;;;3.15;2.92;;;20.50;58.20;;;;;;5053092;28;20178;-63
2021/06/23 03:08:58;;;;;;;3.20;2.90;;;20.50;58.30;;;;;;5054159;28;20537;-63
2021/06/23 03:11:23;;;;;;;3.40;3.10;;;20.50;58.20;;;;;;5053223;28;20203;-63
2021/06/23 03:13:49;;;;;;;3.20;3.00;;;20.50;58.40;;;;;;5053927;28;20191;-62
2021/06/23 03:16:14;;;;;;;3.08;2.88;;;20.50;58.30;;;;;;5054125;28;20163;-63
2021/06/23 03:18:40;;;;;;;3.38;3.05;;;20.50;58.30;;;;;;5053016;28;20618;-62
2021/06/23 03:21:06;;;;;;;3.55;3.17;;;20.50;58.30;;;;;;5054270;28;20650;-62
2021/06/23 03:23:32;;;;;;;3.10;2.90;;;20.50;58.40;;;;;;5053554;28;20505;-62
2021/06/23 03:25:57;;;;;;;3.30;2.97;;;20.50;58.40;;;;;;5053077;28;20175;-62
2021/06/23 03:28:23;;;;;;;3.22;3.03;;;20.50;58.40;;;;;;5053624;28;20223;-62
2021/06/23 03:30:48;;;;;;;2.90;2.70;;;20.50;58.40;;;;;;5053499;28;20236;-62
2021/06/23 03:33:14;;;;;;;3.40;3.20;;;20.50;58.40;;;;;;5052922;28;20677;-63
2021/06/23 03:35:39;;;;;;;3.05;2.80;;;20.50;58.40;;;;;;5053297;28;20199;-64
2021/06/23 03:38:05;;;;;;;3.50;3.20;;;20.50;58.40;;;;;;5053237;28;20655;-64
2021/06/23 03:40:30;;;;;;;3.45;3.25;;;20.50;58.40;;;;;;5052289;28;20668;-64
2021/06/23 03:42:56;;;;;;;3.38;3.17;;;20.50;58.40;;;;;;5053400;28;20217;-63
2021/06/23 03:45:22;;;;;;;3.30;3.00;;;20.40;58.40;;;;;;5053357;28;20198;-63
2021/06/23 03:47:47;;;;;;;3.50;3.15;;;20.40;58.40;;;;;;5052511;28;20672;-63
2021/06/23 03:50:13;;;;;;;3.30;3.10;;;20.40;58.40;;;;;;5053454;28;20273;-62
2021/06/23 03:52:39;;;;;;;3.47;3.17;;;20.40;58.50;;;;;;5053004;28;20206;-62
2021/06/23 03:55:08;;;;;;;3.40;3.10;;;20.40;58.50;;;;;;5052582;28;20638;-62
2021/06/23 03:57:33;;;;;;;3.00;2.80;;;20.40;58.50;;;;;;5053084;28;20203;-63
2021/06/23 03:59:59;;;;;;;3.10;2.67;;;20.40;58.50;;;;;;5053333;28;20194;-63
2021/06/23 04:02:24;;;;;;;4.25;3.47;;;20.40;58.50;;;;;;5052380;28;20201;-63
2021/06/23 04:04:50;;;;;;;3.35;2.85;;;20.40;58.50;;;;;;5052757;28;20632;-63
2021/06/23 04:07:15;;;;;;;3.47;3.20;;;20.40;58.50;;;;;;5053228;28;20251;-63
2021/06/23 04:09:44;;;;;;;3.33;3.03;;;20.40;58.50;;;;;;5051878;28;20190;-63
2021/06/23 04:12:10;;;;;;;3.22;3.03;;;20.40;58.50;;;;;;5052690;28;20301;-63
2021/06/23 04:14:36;;;;;;;3.33;3.00;;;20.40;58.50;;;;;;5052651;28;20179;-63
2021/06/23 04:17:02;;;;;;;5.50;3.15;;;20.40;58.50;;;;;;5051938;28;20610;-63
2021/06/23 04:19:27;;;;;;;3.30;2.95;;;20.40;58.60;;;;;;5052866;28;20604;-62
2021/06/23 04:21:52;;;;;;;3.58;3.25;;;20.40;58.50;;;;;;5051608;28;20688;-62
2021/06/23 04:24:18;;;;;;;3.45;3.25;;;20.40;58.60;;;;;;5052381;28;20175;-63
2021/06/23 04:26:44;;;;;;;3.35;3.13;;;20.40;58.60;;;;;;5052107;28;20376;-62
2021/06/23 04:29:10;;;;;;;2.90;2.70;;;20.40;58.70;;;;;;5051917;28;20202;-63
2021/06/23 04:31:35;;;;;;;3.38;3.17;;;20.40;58.60;;;;;;5052053;28;20282;-62
2021/06/23 04:34:01;;;;;;;4.05;3.65;;;20.40;58.60;;;;;;5052761;28;20602;-63
2021/06/23 04:36:26;;;;;;;3.22;2.97;;;20.40;58.60;;;;;;5051698;28;20262;-64
2021/06/23 04:38:52;;;;;;;3.13;2.88;;;20.40;58.70;;;;;;5052049;28;20270;-64
2021/06/23 04:41:18;;;;;;;3.00;2.80;;;20.40;58.70;;;;;;5052426;28;20171;-63
2021/06/23 04:43:43;;;;;;;3.53;3.22;;;20.40;58.70;;;;;;5051323;28;20258;-63
2021/06/23 04:46:09;;;;;;;3.25;2.95;;;20.40;58.70;;;;;;5052169;28;20202;-63
2021/06/23 04:48:34;;;;;;;3.13;2.83;;;20.40;58.70;;;;;;5051851;28;20290;-62
2021/06/23 04:51:00;;;;;;;3.22;2.92;;;20.40;58.70;;;;;;5051475;28;20602;-62
2021/06/23 04:53:26;;;;;;;3.25;2.85;;;20.40;58.70;;;;;;5051851;28;20233;-62
2021/06/23 04:55:53;;;;;;;2.85;2.65;;;20.40;58.70;;;;;;5051189;28;20629;-62
2021/06/23 04:58:19;;;;;;;2.95;2.75;;;20.40;58.70;;;;;;5051261;28;20217;-62
2021/06/23 05:00:45;;;;;;;3.17;2.78;;;20.40;58.70;;;;;;5051541;28;20175;-63
2021/06/23 05:03:10;;;;;;;3.10;2.90;;;20.40;58.70;;;;;;5033802;28;20210;-63
2021/06/23 05:05:36;;;;;;;3.40;3.10;;;20.40;58.80;;;;;;5050870;28;20319;-62
2021/06/23 05:08:01;;;;;;;3.17;2.97;;;20.40;58.70;;;;;;5051879;28;20171;-63
2021/06/23 05:10:27;;;;;;;3.50;3.20;;;20.40;58.70;;;;;;5051679;28;20179;-63
2021/06/23 05:12:52;;;;;;;2.75;2.60;;;20.40;58.70;;;;;;5050750;28;20211;-62
2021/06/23 05:15:18;;;;;;;3.13;2.92;;;20.40;58.70;;;;;;5051814;28;20198;-62
2021/06/23 05:17:43;;;;;;;4.38;3.40;;;20.40;58.70;;;;;;5051319;28;20182;-62
2021/06/23 05:20:10;;;;;;;3.25;3.03;;;20.40;58.70;;;;;;5050886;28;20635;-62
2021/06/23 05:22:35;;;;;;;3.35;3.08;;;20.40;58.70;;;;;;5051071;28;20210;-62
2021/06/23 05:25:01;;;;;;;3.47;3.17;;;20.40;58.70;;;;;;5050899;28;20263;-62
2021/06/23 05:27:27;;;;;;;3.08;2.88;;;20.40;58.60;;;;;;5051457;28;20223;-62
2021/06/23 05:29:52;;;;;;;2.67;2.40;;;20.40;58.70;;;;;;5051360;28;20329;-62
2021/06/23 05:32:18;;;;;;;2.97;2.78;;;20.40;58.60;;;;;;5050827;28;20651;-63
2021/06/23 05:34:43;;;;;;;3.00;2.80;;;20.40;58.60;;;;;;5051170;28;20183;-64
2021/06/23 05:37:09;;;;;;;3.13;2.83;;;20.40;58.60;;;;;;5051340;28;20546;-64
2021/06/23 05:39:34;;;;;;;3.63;3.33;;;20.50;58.60;;;;;;5050269;28;20186;-63
2021/06/23 05:42:00;;;;;;;3.38;3.17;;;20.50;58.60;;;;;;5051404;28;20214;-63
2021/06/23 05:44:25;;;;;;;4.07;3.40;;;20.50;58.60;;;;;;5051433;28;20257;-64
2021/06/23 05:46:51;;;;;;;3.38;3.15;;;20.50;58.60;;;;;;5050191;28;20167;-64
2021/06/23 05:49:17;;;;;;;3.03;2.83;;;20.50;58.50;;;;;;5051246;28;20226;-61
2021/06/23 05:51:42;;;;;;;3.75;2.92;;;20.50;58.50;;;;;;5050856;28;20203;-61
2021/06/23 05:54:08;;;;;;;2.70;2.53;;;20.50;58.50;;;;;;5050339;28;20167;-61
2021/06/23 05:56:33;;;;;;;3.03;2.80;;;20.60;58.50;;;;;;5051206;28;20179;-61
2021/06/23 05:59:00;;;;;;;3.20;3.00;;;20.50;58.50;;;;;;5051315;28;20625;-62
2021/06/23 06:01:25;;;;;;;3.08;2.88;;;20.50;58.50;;;;;;5050412;28;20185;-62
2021/06/23 06:03:51;;;;;;;3.42;3.13;;;20.60;58.60;;;;;;5050744;28;20692;-62
2021/06/23 06:06:16;;;;;;;3.15;2.95;;;20.50;58.60;;;;;;5051036;28;20183;-62
2021/06/23 06:08:42;;;;;;;3.05;2.85;;;20.50;58.60;;;;;;5052605;28;20187;-63
2021/06/23 06:11:08;;;;;;;3.17;2.97;;;20.50;58.60;;;;;;5054902;28;20266;-63
2021/06/23 06:13:33;;;;;;;3.00;2.80;;;20.50;58.70;;;;;;5054463;28;20215;-62
2021/06/23 06:15:58;;;;;;;3.28;3.08;;;20.50;58.70;;;;;;5054185;28;20262;-62
2021/06/23 06:18:24;;;;;;;3.00;2.80;;;20.50;58.70;;;;;;5054969;28;20179;-62
2021/06/23 06:20:50;;;;;;;3.33;3.13;;;20.50;58.70;;;;;;5054449;28;20241;-62
2021/06/23 06:23:15;;;;;;;3.00;2.80;;;20.50;58.70;;;;;;5054221;28;20508;-62
2021/06/23 06:25:41;;;;;;;3.22;2.97;;;20.50;58.70;;;;;;5054507;28;20651;-62
2021/06/23 06:28:07;;;;;;;3.10;2.90;;;20.50;58.70;;;;;;5054460;28;20234;-62
2021/06/23 06:30:32;;;;;;;2.40;2.30;;;20.50;58.70;;;;;;5053757;28;20310;-62
2021/06/23 06:32:58;;;;;;;2.92;2.72;;;20.50;58.80;;;;;;5054586;28;20211;-63
2021/06/23 06:35:23;;;;;;;2.92;2.65;;;20.50;58.70;;;;;;5053855;28;20573;-63
2021/06/23 06:37:49;;;;;;;2.65;2.55;;;20.50;58.70;;;;;;5054064;28;20187;-63
2021/06/23 06:40:15;;;;;;;3.17;2.97;;;20.50;58.70;;;;;;5054277;28;20176;-63
2021/06/23 06:42:40;;;;;;;3.28;3.03;;;20.50;58.70;;;;;;5053523;28;20179;-63
2021/06/23 06:45:06;;;;;;;2.78;2.53;;;20.50;58.70;;;;;;5054383;28;20522;-64
2021/06/23 06:47:32;;;;;;;2.83;2.63;;;20.60;58.80;;;;;;5054181;28;20651;-65
2021/06/23 06:49:57;;;;;;;2.88;2.67;;;20.50;58.80;;;;;;5053635;28;20601;-64
2021/06/23 06:52:23;;;;;;;3.80;3.28;;;20.60;58.80;;;;;;5054045;28;20206;-64
2021/06/23 06:54:48;;;;;;;3.15;2.88;;;20.60;58.60;;;;;;5053755;28;20759;-65
2021/06/23 06:57:14;;;;;;;3.20;3.00;;;20.60;58.80;;;;;;5053489;28;20171;-65
2021/06/23 06:59:39;;;;;;;4.05;3.05;;;20.60;58.70;;;;;;5053552;28;20179;-65
2021/06/23 07:02:05;;;;;;;3.95;3.08;;;20.60;58.60;;;;;;5053942;28;20253;-66
2021/06/23 07:04:31;;;;;;;6.45;3.05;;;20.60;58.60;;;;;;5053099;28;20171;-65
2021/06/23 07:06:56;;;;;;;3.30;3.00;;;20.60;58.60;;;;;;5053913;28;20198;-65
2021/06/23 07:09:23;;;;;;;5.97;3.03;;;20.70;58.60;;;;;;5053810;28;20634;-65
2021/06/23 07:11:49;;;;;;;5.35;3.13;;;20.70;58.60;;;;;;5053108;28;20206;-66
2021/06/23 07:14:15;;;;;;;4.00;2.80;;;20.70;58.60;;;;;;5053865;28;20537;-65
2021/06/23 07:16:41;;;;;;;3.20;2.88;;;20.70;58.60;;;;;;5053659;28;20167;-65
2021/06/23 07:19:06;;;;;;;3.17;2.65;;;20.70;58.50;;;;;;5052499;28;20186;-65
2021/06/23 07:21:32;;;;;;;4.15;3.03;;;20.70;58.50;;;;;;5053355;28;20167;-65
2021/06/23 07:23:58;;;;;;;3.35;2.83;;;20.70;58.50;;;;;;5053940;28;20189;-65
2021/06/23 07:26:25;;;;;;;3.08;2.80;;;20.70;58.50;;;;;;5052720;28;20644;-64
2021/06/23 07:28:53;;;;;;;4.10;2.90;;;20.80;58.40;;;;;;5053502;28;20214;-65
2021/06/23 07:31:29;;;;;;;5.10;3.03;;;20.80;58.40;;;;;;5053615;28;20203;-65
2021/06/23 07:36:53;;;;;;;3.78;2.85;;;20.80;58.20;;;;;;5033766;28;20211;-66
2021/06/23 07:39:19;;;;;;;3.60;2.78;;;20.80;58.20;;;;;;5052983;28;20186;-66
2021/06/23 07:41:46;;;;;;;3.47;2.80;;;20.80;58.20;;;;;;5053332;28;20242;-66
2021/06/23 07:44:13;;;;;;;4.97;2.60;;;20.80;58.80;;;;;;5053391;28;20179;-66
2021/06/23 07:46:52;;;;;;;12.50;3.13;;;20.80;58.10;;;;;;5052177;28;20644;-66
2021/06/23 07:49:19;;;;;;;9.55;3.35;;;20.80;58.20;;;;;;5052850;28;20402;-64
2021/06/23 08:10:36;;;;;;;4.93;2.70;;;21.00;58.40;;;;;;5052773;28;20217;-63
2021/06/23 08:13:02;;;;;;;4.10;2.80;;;21.10;58.50;;;;;;5052640;28;20219;-64
2021/06/23 08:15:29;;;;;;;5.65;3.00;;;21.10;58.50;;;;;;5051789;28;20629;-63
2021/06/23 08:17:55;;;;;;;6.78;3.17;;;21.10;58.50;;;;;;5052276;28;20236;-62
2021/06/23 08:20:20;;;;;;;7.38;2.90;;;21.10;58.50;;;;;;5052674;28;20179;-64
2021/06/23 08:22:46;;;;;;;6.78;2.90;;;21.20;58.60;;;;;;5051341;28;20258;-63
2021/06/23 08:25:11;;;;;;;7.97;2.72;;;21.20;58.60;;;;;;5052243;28;20175;-65
2021/06/23 08:27:38;;;;;;;5.93;2.40;;;21.20;58.60;;;;;;5051693;28;20233;-65
2021/06/23 08:30:04;;;;;;;4.38;3.00;;;21.20;58.70;;;;;;5051566;28;20273;-66
2021/06/23 08:32:29;;;;;;;4.57;2.78;;;21.20;58.60;;;;;;5051018;28;20231;-63
2021/06/23 08:34:55;;;;;;;4.72;2.58;;;21.20;58.40;;;;;;5051611;28;20182;-61
2021/06/23 08:37:20;;;;;;;6.57;3.00;;;21.10;58.40;;;;;;5052186;28;20547;-62
2021/06/23 08:39:46;;;;;;;7.47;2.60;;;21.10;58.30;;;;;;5051999;28;20175;-65
2021/06/23 08:42:11;;;;;;;4.05;2.50;;;21.10;58.20;;;;;;5051464;28;20182;-67
2021/06/23 08:44:37;;;;;;;4.53;2.47;;;21.10;57.80;;;;;;5051888;28;20174;-68
2021/06/23 08:47:03;;;;;;;5.63;2.63;;;21.10;57.50;;;;;;5052244;28;20591;-64
2021/06/23 08:49:29;;;;;;;6.88;3.03;;;21.20;57.30;;;;;;5051284;28;20399;-65
2021/06/23 08:51:55;;;;;;;12.43;3.20;;;21.20;57.30;;;;;;5052045;28;20302;-66
2021/06/23 08:54:20;;;;;;;6.30;2.40;;;21.20;57.30;;;;;;5052260;28;20197;-63
2021/06/23 08:56:46;;;;;;;7.63;2.83;;;21.20;57.30;;;;;;5050729;28;20254;-65
2021/06/23 08:59:11;;;;;;;9.25;2.97;;;21.20;57.20;;;;;;5052059;28;20600;-65
2021/06/23 09:01:37;;;;;;;5.13;2.55;;;21.20;57.30;;;;;;5051513;28;20270;-66
2021/06/23 09:04:07;;;;;;;5.70;2.42;;;21.20;57.30;;;;;;5051246;28;20179;-64
2021/06/23 09:06:50;;;;;;;6.90;2.42;;;21.20;57.30;;;;;;5051902;28;20183;-64
2021/06/23 09:09:34;;;;;;;7.55;2.53;;;21.20;57.30;;;;;;5051983;28;20561;-66
2021/06/23 09:12:01;;;;;;;8.88;3.10;;;21.20;57.40;;;;;;5050968;28;20272;-64
2021/06/23 09:14:29;;;;;;;4.95;2.28;;;21.20;57.40;;;;;;5052039;28;20191;-65
2021/06/23 09:17:15;;;;;;;7.15;2.90;;;21.30;57.40;;;;;;5051804;28;20522;-64
2021/06/23 09:19:40;;;;;;;7.93;2.60;;;21.30;57.40;;;;;;5051634;28;20218;-64
2021/06/23 09:22:35;;;;;;;8.55;2.90;;;21.40;57.30;;;;;;5051654;28;20241;-65
2021/06/23 09:25:05;;;;;;;4.07;2.30;;;21.50;57.20;;;;;;5050410;28;20592;-63
2021/06/23 09:27:31;;;;;;;6.40;2.40;;;21.50;57.30;;;;;;5062351;28;20237;-63
2021/06/23 09:30:23;;;;;;;5.40;2.08;;;21.40;57.30;;;;;;5057666;28;20178;-64
2021/06/23 09:33:13;;;;;;;4.70;2.45;;;21.40;57.40;;;;;;5070572;28;20210;-64
2021/06/23 09:35:42;;;;;;;5.97;2.42;;;21.30;57.40;;;;;;5053407;28;20183;-64
2021/06/23 09:38:36;;;;;;;5.25;2.40;;;21.40;57.50;;;;;;5051740;28;20171;-64
2021/06/23 09:41:03;;;;;;;3.05;2.30;;;21.30;57.50;;;;;;5051131;28;20175;-65
2021/06/23 09:43:40;;;;;;;6.18;2.50;;;21.40;57.50;;;;;;5066134;28;20217;-64
2021/06/23 09:46:15;;;;;;;5.82;2.63;;;21.40;57.60;;;;;;5053725;28;20309;-64
2021/06/23 09:48:41;;;;;;;5.50;2.40;;;21.40;58.10;;;;;;5054268;28;20202;-62
2021/06/23 09:51:17;;;;;;;6.55;2.45;;;21.40;57.50;;;;;;5054114;28;20191;-63
2021/06/23 09:53:43;;;;;;;3.55;2.40;;;21.40;57.50;;;;;;5053500;28;20219;-63
2021/06/23 09:56:29;;;;;;;4.55;2.10;;;21.40;57.50;;;;;;5055710;28;20696;-63
2021/06/23 09:58:56;;;;;;;3.78;2.13;;;21.40;57.50;;;;;;5035605;28;20203;-63
2021/06/23 10:01:21;;;;;;;2.53;2.28;;;21.40;57.40;;;;;;5072157;28;20232;-63
2021/06/23 10:03:58;;;;;;;5.47;2.30;;;21.50;57.40;;;;;;5057184;28;20171;-64
2021/06/23 10:06:31;;;;;;;3.83;2.58;;;21.40;57.30;;;;;;5074564;28;20202;-65
2021/06/23 10:09:20;;;;;;;2.83;1.88;;;21.40;57.30;;;;;;5075221;28;20180;-64
2021/06/23 10:11:47;;;;;;;5.82;2.20;;;21.50;58.00;;;;;;5074852;28;20182;-64
2021/06/23 10:14:12;;;;;;;3.88;2.20;;;21.50;57.20;;;;;;5074127;28;20267;-64
2021/06/23 10:16:38;;;;;;;2.60;2.10;;;21.50;57.20;;;;;;5074835;28;20270;-63
2021/06/23 10:19:04;;;;;;;5.47;2.00;;;21.50;57.20;;;;;;5075040;28;20211;-65
2021/06/23 10:21:30;;;;;;;4.68;2.20;;;21.60;57.30;;;;;;5073863;28;20179;-61
2021/06/23 10:23:57;;;;;;;11.32;2.72;;;21.60;57.20;;;;;;5074763;28;20220;-60
2021/06/23 10:26:24;;;;;;;10.90;3.00;;;21.70;57.00;;;;;;5074639;28;20205;-64
2021/06/23 10:28:50;;;;;;;16.17;3.42;;;21.70;56.80;;;;;;5055717;28;20606;-62
2021/06/23 10:31:16;;;;;;;14.25;3.00;;;21.80;56.80;;;;;;5074709;28;20270;-62
2021/06/23 10:33:41;;;;;;;9.25;3.05;;;21.90;56.90;;;;;;5069797;28;20328;-60
2021/06/23 10:36:07;;;;;;;10.02;3.42;;;21.80;55.60;;;;;;5036045;28;20250;-60
2021/06/23 10:38:33;;;;;;;10.98;3.10;;;21.70;55.10;;;;;;5054483;28;20235;-61
2021/06/23 10:40:59;;;;;;;12.68;3.35;;;21.80;55.90;;;;;;5037057;28;20205;-63
2021/06/23 10:43:24;;;;;;;9.90;2.97;;;21.90;56.10;;;;;;5053965;28;20224;-66
2021/06/23 10:45:50;;;;;;;11.90;2.78;;;21.90;56.30;;;;;;5036431;28;20640;-64
2021/06/23 10:48:15;;;;;;;11.02;2.83;;;21.90;55.90;;;;;;5054686;28;20194;-63
2021/06/23 10:50:41;;;;;;;6.60;2.53;;;21.90;55.80;;;;;;5053434;28;20648;-64
2021/06/23 10:53:29;;;;;;;10.55;3.20;;;22.00;55.70;;;;;;5054508;28;20218;-63
2021/06/23 10:55:54;;;;;;;8.63;2.90;;;21.90;55.70;;;;;;5052697;28;21045;-60
2021/06/23 10:58:25;;;;;;;7.82;2.78;;;22.00;55.90;;;;;;5054308;28;20266;-61
2021/06/23 11:00:52;;;;;;;9.52;2.38;;;22.10;55.70;;;;;;5054267;28;20185;-61
2021/06/23 11:03:18;;;;;;;5.25;2.22;;;22.10;55.70;;;;;;5035728;28;20258;-61
2021/06/23 11:05:51;;;;;;;11.10;2.70;;;22.10;55.80;;;;;;5053980;28;20606;-62
2021/06/23 11:08:25;;;;;;;7.53;2.28;;;22.20;56.50;;;;;;5054251;28;20171;-62
2021/06/23 11:10:52;;;;;;;6.78;2.63;;;22.20;56.00;;;;;;5053242;28;20175;-64
2021/06/23 11:13:19;;;;;;;5.53;2.45;;;22.20;56.10;;;;;;5036527;28;20218;-63
2021/06/23 11:15:49;;;;;;;9.50;2.55;;;22.10;56.20;;;;;;5053879;28;20175;-63
2021/06/23 11:18:24;;;;;;;8.70;2.83;;;22.10;56.30;;;;;;5053491;28;20182;-63
2021/06/23 11:21:18;;;;;;;4.43;2.55;;;22.10;56.30;;;;;;5053614;28;20190;-63
2021/06/23 11:23:49;;;;;;;15.15;3.40;;;22.10;56.30;;;;;;5053114;28;20190;-63
2021/06/23 11:26:23;;;;;;;7.20;2.83;;;22.10;56.30;;;;;;5053893;28;20179;-62
2021/06/23 11:28:56;;;;;;;7.28;2.95;;;22.10;56.30;;;;;;5053441;28;20310;-63
2021/06/23 11:31:22;;;;;;;10.00;3.55;;;22.10;56.40;;;;;;5035816;28;20238;-62
2021/06/23 11:33:49;;;;;;;6.57;3.40;;;22.10;56.50;;;;;;5058309;28;20667;-63
2021/06/23 11:36:19;;;;;;;8.25;3.25;;;22.10;56.40;;;;;;5073825;28;20175;-63
2021/06/23 11:38:46;;;;;;;7.45;2.85;;;22.00;56.40;;;;;;5072674;28;20187;-64
2021/06/23 11:41:11;;;;;;;6.90;2.70;;;22.10;56.30;;;;;;5073723;28;20179;-63
2021/06/23 11:43:37;;;;;;;6.65;2.95;;;22.10;56.40;;;;;;5073285;28;20208;-63
2021/06/23 11:46:02;;;;;;;4.82;2.67;;;22.00;56.50;;;;;;5054932;28;20224;-63
2021/06/23 11:48:28;;;;;;;7.93;2.60;;;22.00;56.50;;;;;;5073505;28;20514;-62
2021/06/23 11:50:54;;;;;;;5.15;2.83;;;22.00;56.50;;;;;;5073228;28;20170;-62
2021/06/23 11:53:20;;;;;;;8.55;2.53;;;22.00;56.40;;;;;;5072804;28;20212;-63
2021/06/23 11:55:46;;;;;;;5.18;2.72;;;22.00;56.50;;;;;;5073373;28;20177;-63
2021/06/23 11:58:12;;;;;;;8.23;3.25;;;22.10;56.40;;;;;;5073157;28;20687;-62
2021/06/23 12:00:38;;;;;;;6.63;2.70;;;22.10;56.40;;;;;;5072098;28;20270;-62
2021/06/23 12:03:06;;;;;;;9.07;2.70;;;22.10;56.90;;;;;;5073511;28;20258;-63
2021/06/23 12:05:31;;;;;;;6.22;2.67;;;22.10;56.30;;;;;;5072810;28;20170;-62
2021/06/23 12:07:57;;;;;;;6.80;2.83;;;22.10;56.40;;;;;;5072660;28;20197;-62
2021/06/23 12:10:24;;;;;;;3.47;2.10;;;22.10;56.40;;;;;;5073270;28;20656;-63
2021/06/23 12:12:50;;;;;;;6.90;2.50;;;22.10;56.50;;;;;;5072543;28;20214;-63
2021/06/23 12:15:20;;;;;;;5.47;2.65;;;22.20;56.50;;;;;;5054403;28;20175;-63
2021/06/23 12:17:46;;;;;;;4.65;2.20;;;22.20;56.40;;;;;;5072811;28;20183;-62
2021/06/23 12:20:12;;;;;;;3.35;2.30;;;22.20;56.30;;;;;;5072326;28;20240;-62
2021/06/23 12:22:38;;;;;;;4.38;2.67;;;22.20;56.30;;;;;;5072633;28;20206;-63
2021/06/23 12:25:07;;;;;;;4.30;2.40;;;22.20;56.20;;;;;;5072852;28;20174;-62
2021/06/23 12:27:32;;;;;;;4.95;2.67;;;22.20;56.20;;;;;;5071450;28;20226;-63
2021/06/23 12:29:58;;;;;;;5.75;2.80;;;22.20;56.20;;;;;;5073270;28;20167;-62
2021/06/23 12:32:23;;;;;;;4.07;2.42;;;22.20;56.30;;;;;;5072738;28;20220;-61
2021/06/23 12:34:49;;;;;;;5.78;2.60;;;22.20;56.20;;;;;;5058224;28;20179;-61
2021/06/23 12:37:15;;;;;;;4.82;2.30;;;22.20;56.20;;;;;;5052650;28;20518;-61
2021/06/23 12:39:43;;;;;;;4.30;2.47;;;22.30;56.10;;;;;;5052378;28;20185;-61
2021/06/23 12:42:09;;;;;;;5.60;2.40;;;22.30;56.00;;;;;;5051804;28;20171;-62
2021/06/23 12:44:34;;;;;;;2.30;1.92;;;22.30;56.00;;;;;;5052108;28;20176;-61
2021/06/23 12:47:00;;;;;;;1.95;1.85;;;22.30;56.00;;;;;;5052680;28;20167;-61
2021/06/23 12:49:25;;;;;;;3.10;2.20;;;22.30;56.00;;;;;;5051936;28;20675;-61
2021/06/23 12:51:51;;;;;;;7.88;2.42;;;22.30;56.00;;;;;;5052146;28;20171;-61
2021/06/23 12:54:17;;;;;;;3.10;2.17;;;22.30;55.90;;;;;;5052486;28;20493;-61
2021/06/23 12:56:42;;;;;;;3.08;2.03;;;22.40;55.90;;;;;;5051339;28;20163;-61
2021/06/23 12:59:08;;;;;;;3.53;2.38;;;22.40;55.80;;;;;;5052326;28;20642;-61
2021/06/23 13:01:33;;;;;;;3.92;2.30;;;22.50;55.80;;;;;;5051823;28;20175;-62
2021/06/23 13:03:59;;;;;;;5.72;2.40;;;22.50;55.80;;;;;;5051586;28;20660;-61
2021/06/23 13:06:24;;;;;;;5.35;2.30;;;22.40;55.90;;;;;;5052209;28;20270;-61